sensor_id;sensor_type;location;lat;lon;timestamp;P1;durP1;ratioP1;P2;durP2;ratioP2
22064;SDS011;11197;53.110;8.468;2024-01-07T00:00:03;9.63;;;5.80;;
22064;SDS011;11197;53.110;8.468;2024-01-07T00:02:29;10.43;;;5.82;;
22064;SDS011;11197;53.110;8.468;2024-01-07T00:04:56;10.50;;;5.93;;
22064;SDS011;11197;53.110;8.468;2024-01-07T00:07:23;10.98;;;5.65;;
22064;SDS011;11197;53.110;8.468;2024-01-07T00:09:48;10.43;;;5.63;;
22064;SDS011;11197;53.110;8.468;2024-01-07T00:12:14;9.60;;;5.35;;
22064;SDS011;11197;53.110;8.468;2024-01-07T00:14:40;8.50;;;5.40;;
22064;SDS011;11197;53.110;8.468;2024-01-07T00:17:06;8.68;;;5.40;;
22064;SDS011;11197;53.110;8.468;2024-01-07T00:19:32;8.98;;;5.97;;
22064;SDS011;11197;53.110;8.468;2024-01-07T00:22:00;8.68;;;5.43;;
22064;SDS011;11197;53.110;8.468;2024-01-07T00:24:26;8.75;;;5.68;;
22064;SDS011;11197;53.110;8.468;2024-01-07T00:26:54;9.13;;;5.60;;
22064;SDS011;11197;53.110;8.468;2024-01-07T00:29:20;10.60;;;5.78;;
22064;SDS011;11197;53.110;8.468;2024-01-07T00:31:46;9.07;;;6.05;;
22064;SDS011;11197;53.110;8.468;2024-01-07T00:34:11;10.90;;;6.30;;
22064;SDS011;11197;53.110;8.468;2024-01-07T00:36:37;9.48;;;5.80;;
22064;SDS011;11197;53.110;8.468;2024-01-07T00:39:03;9.55;;;5.78;;
22064;SDS011;11197;53.110;8.468;2024-01-07T00:41:28;9.93;;;5.63;;
22064;SDS011;11197;53.110;8.468;2024-01-07T00:43:55;9.57;;;5.28;;
22064;SDS011;11197;53.110;8.468;2024-01-07T00:46:21;7.68;;;5.28;;
22064;SDS011;11197;53.110;8.468;2024-01-07T00:48:47;9.80;;;5.57;;
22064;SDS011;11197;53.110;8.468;2024-01-07T00:51:12;10.10;;;5.55;;
22064;SDS011;11197;53.110;8.468;2024-01-07T00:53:38;8.57;;;5.28;;
22064;SDS011;11197;53.110;8.468;2024-01-07T00:56:04;10.05;;;5.60;;
22064;SDS011;11197;53.110;8.468;2024-01-07T00:58:30;8.20;;;5.25;;
22064;SDS011;11197;53.110;8.468;2024-01-07T01:00:56;10.07;;;5.65;;
22064;SDS011;11197;53.110;8.468;2024-01-07T01:03:22;9.35;;;5.78;;
22064;SDS011;11197;53.110;8.468;2024-01-07T01:05:48;9.75;;;5.53;;
22064;SDS011;11197;53.110;8.468;2024-01-07T01:08:14;11.93;;;6.13;;
22064;SDS011;11197;53.110;8.468;2024-01-07T01:10:41;10.27;;;5.93;;
22064;SDS011;11197;53.110;8.468;2024-01-07T01:13:07;8.73;;;5.82;;
22064;SDS011;11197;53.110;8.468;2024-01-07T01:15:33;10.48;;;6.22;;
22064;SDS011;11197;53.110;8.468;2024-01-07T01:17:59;9.30;;;5.68;;
22064;SDS011;11197;53.110;8.468;2024-01-07T01:20:25;10.27;;;5.85;;
22064;SDS011;11197;53.110;8.468;2024-01-07T01:22:51;9.82;;;5.82;;
22064;SDS011;11197;53.110;8.468;2024-01-07T01:25:16;9.38;;;6.00;;
22064;SDS011;11197;53.110;8.468;2024-01-07T01:27:42;11.55;;;5.80;;
22064;SDS011;11197;53.110;8.468;2024-01-07T01:30:08;10.77;;;5.97;;
22064;SDS011;11197;53.110;8.468;2024-01-07T01:32:34;9.20;;;5.47;;
22064;SDS011;11197;53.110;8.468;2024-01-07T01:35:00;9.60;;;6.32;;
22064;SDS011;11197;53.110;8.468;2024-01-07T01:37:25;9.93;;;6.15;;
22064;SDS011;11197;53.110;8.468;2024-01-07T01:39:52;9.85;;;5.80;;
22064;SDS011;11197;53.110;8.468;2024-01-07T01:42:17;8.55;;;5.63;;
22064;SDS011;11197;53.110;8.468;2024-01-07T01:44:43;9.23;;;5.65;;
22064;SDS011;11197;53.110;8.468;2024-01-07T01:47:09;8.80;;;5.65;;
22064;SDS011;11197;53.110;8.468;2024-01-07T01:49:36;8.52;;;5.63;;
22064;SDS011;11197;53.110;8.468;2024-01-07T01:52:03;8.98;;;5.63;;
22064;SDS011;11197;53.110;8.468;2024-01-07T01:54:30;8.35;;;5.20;;
22064;SDS011;11197;53.110;8.468;2024-01-07T01:56:55;9.80;;;5.90;;
22064;SDS011;11197;53.110;8.468;2024-01-07T01:59:22;8.30;;;5.57;;
22064;SDS011;11197;53.110;8.468;2024-01-07T02:01:50;9.88;;;5.35;;
22064;SDS011;11197;53.110;8.468;2024-01-07T02:04:16;10.27;;;5.60;;
22064;SDS011;11197;53.110;8.468;2024-01-07T02:06:42;8.90;;;5.40;;
22064;SDS011;11197;53.110;8.468;2024-01-07T02:09:09;9.00;;;5.43;;
22064;SDS011;11197;53.110;8.468;2024-01-07T02:11:35;7.68;;;4.75;;
22064;SDS011;11197;53.110;8.468;2024-01-07T02:14:01;9.65;;;5.10;;
22064;SDS011;11197;53.110;8.468;2024-01-07T02:16:27;9.10;;;5.25;;
22064;SDS011;11197;53.110;8.468;2024-01-07T02:18:52;8.05;;;5.18;;
22064;SDS011;11197;53.110;8.468;2024-01-07T02:21:18;9.65;;;5.40;;
22064;SDS011;11197;53.110;8.468;2024-01-07T02:23:43;9.35;;;4.95;;
22064;SDS011;11197;53.110;8.468;2024-01-07T02:26:09;8.30;;;4.60;;
22064;SDS011;11197;53.110;8.468;2024-01-07T02:28:35;9.40;;;5.22;;
22064;SDS011;11197;53.110;8.468;2024-01-07T02:31:01;8.27;;;4.88;;
22064;SDS011;11197;53.110;8.468;2024-01-07T02:33:26;9.55;;;5.05;;
22064;SDS011;11197;53.110;8.468;2024-01-07T02:35:53;7.93;;;5.25;;
22064;SDS011;11197;53.110;8.468;2024-01-07T02:38:18;9.30;;;5.40;;
22064;SDS011;11197;53.110;8.468;2024-01-07T02:40:44;8.82;;;4.82;;
22064;SDS011;11197;53.110;8.468;2024-01-07T02:43:10;8.13;;;4.88;;
22064;SDS011;11197;53.110;8.468;2024-01-07T02:45:35;7.82;;;4.90;;
22064;SDS011;11197;53.110;8.468;2024-01-07T02:48:01;9.35;;;4.97;;
22064;SDS011;11197;53.110;8.468;2024-01-07T02:50:27;8.85;;;4.95;;
22064;SDS011;11197;53.110;8.468;2024-01-07T02:52:53;7.47;;;4.80;;
22064;SDS011;11197;53.110;8.468;2024-01-07T02:55:18;7.75;;;4.50;;
22064;SDS011;11197;53.110;8.468;2024-01-07T02:57:44;8.32;;;4.32;;
22064;SDS011;11197;53.110;8.468;2024-01-07T03:00:10;7.93;;;5.20;;
22064;SDS011;11197;53.110;8.468;2024-01-07T03:02:36;8.30;;;4.30;;
22064;SDS011;11197;53.110;8.468;2024-01-07T03:05:01;6.90;;;4.00;;
22064;SDS011;11197;53.110;8.468;2024-01-07T03:07:27;6.13;;;3.50;;
22064;SDS011;11197;53.110;8.468;2024-01-07T03:09:53;6.25;;;3.30;;
22064;SDS011;11197;53.110;8.468;2024-01-07T03:12:19;8.00;;;3.20;;
22064;SDS011;11197;53.110;8.468;2024-01-07T03:14:44;6.07;;;3.10;;
22064;SDS011;11197;53.110;8.468;2024-01-07T03:17:10;6.22;;;2.88;;
22064;SDS011;11197;53.110;8.468;2024-01-07T03:19:39;7.65;;;3.00;;
22064;SDS011;11197;53.110;8.468;2024-01-07T03:22:05;5.97;;;3.10;;
22064;SDS011;11197;53.110;8.468;2024-01-07T03:24:32;5.50;;;2.92;;
22064;SDS011;11197;53.110;8.468;2024-01-07T03:26:58;6.63;;;2.80;;
22064;SDS011;11197;53.110;8.468;2024-01-07T03:29:23;4.70;;;2.60;;
22064;SDS011;11197;53.110;8.468;2024-01-07T03:31:49;5.35;;;2.78;;
22064;SDS011;11197;53.110;8.468;2024-01-07T03:34:16;4.68;;;2.60;;
22064;SDS011;11197;53.110;8.468;2024-01-07T03:36:41;7.15;;;2.65;;
22064;SDS011;11197;53.110;8.468;2024-01-07T03:39:07;5.18;;;2.40;;
22064;SDS011;11197;53.110;8.468;2024-01-07T03:41:33;6.35;;;2.80;;
22064;SDS011;11197;53.110;8.468;2024-01-07T03:43:59;4.55;;;2.47;;
22064;SDS011;11197;53.110;8.468;2024-01-07T03:46:25;6.18;;;2.50;;
22064;SDS011;11197;53.110;8.468;2024-01-07T03:48:50;4.95;;;2.40;;
22064;SDS011;11197;53.110;8.468;2024-01-07T03:51:16;4.25;;;1.95;;
22064;SDS011;11197;53.110;8.468;2024-01-07T03:53:42;4.72;;;2.50;;
22064;SDS011;11197;53.110;8.468;2024-01-07T03:56:07;4.60;;;2.35;;
22064;SDS011;11197;53.110;8.468;2024-01-07T03:58:33;4.47;;;2.22;;
22064;SDS011;11197;53.110;8.468;2024-01-07T04:01:00;5.05;;;2.28;;
22064;SDS011;11197;53.110;8.468;2024-01-07T04:03:26;3.65;;;2.00;;
22064;SDS011;11197;53.110;8.468;2024-01-07T04:05:51;7.97;;;2.53;;
22064;SDS011;11197;53.110;8.468;2024-01-07T04:08:17;4.65;;;2.30;;
22064;SDS011;11197;53.110;8.468;2024-01-07T04:10:43;5.05;;;2.17;;
22064;SDS011;11197;53.110;8.468;2024-01-07T04:13:09;4.88;;;2.00;;
22064;SDS011;11197;53.110;8.468;2024-01-07T04:15:34;3.45;;;1.90;;
22064;SDS011;11197;53.110;8.468;2024-01-07T04:18:01;5.80;;;1.90;;
22064;SDS011;11197;53.110;8.468;2024-01-07T04:20:28;3.38;;;1.60;;
22064;SDS011;11197;53.110;8.468;2024-01-07T04:22:54;3.90;;;1.80;;
22064;SDS011;11197;53.110;8.468;2024-01-07T04:25:19;3.75;;;2.00;;
22064;SDS011;11197;53.110;8.468;2024-01-07T04:27:45;4.88;;;1.67;;
22064;SDS011;11197;53.110;8.468;2024-01-07T04:30:10;4.32;;;1.80;;
22064;SDS011;11197;53.110;8.468;2024-01-07T04:32:36;3.00;;;1.67;;
22064;SDS011;11197;53.110;8.468;2024-01-07T04:35:02;4.28;;;1.73;;
22064;SDS011;11197;53.110;8.468;2024-01-07T04:37:28;4.82;;;1.60;;
22064;SDS011;11197;53.110;8.468;2024-01-07T04:39:54;3.83;;;1.60;;
22064;SDS011;11197;53.110;8.468;2024-01-07T04:42:19;3.78;;;1.90;;
22064;SDS011;11197;53.110;8.468;2024-01-07T04:44:45;5.25;;;2.00;;
22064;SDS011;11197;53.110;8.468;2024-01-07T04:47:30;3.80;;;1.75;;
22064;SDS011;11197;53.110;8.468;2024-01-07T04:49:59;3.45;;;1.80;;
22064;SDS011;11197;53.110;8.468;2024-01-07T04:52:25;3.17;;;1.70;;
22064;SDS011;11197;53.110;8.468;2024-01-07T04:54:51;3.20;;;1.65;;
22064;SDS011;11197;53.110;8.468;2024-01-07T04:57:18;3.38;;;1.70;;
22064;SDS011;11197;53.110;8.468;2024-01-07T04:59:44;4.03;;;1.58;;
22064;SDS011;11197;53.110;8.468;2024-01-07T05:02:11;3.28;;;1.60;;
22064;SDS011;11197;53.110;8.468;2024-01-07T05:04:37;4.10;;;1.73;;
22064;SDS011;11197;53.110;8.468;2024-01-07T05:07:03;4.15;;;1.80;;
22064;SDS011;11197;53.110;8.468;2024-01-07T05:09:29;4.43;;;1.73;;
22064;SDS011;11197;53.110;8.468;2024-01-07T05:11:55;3.25;;;1.75;;
22064;SDS011;11197;53.110;8.468;2024-01-07T05:14:20;4.50;;;1.70;;
22064;SDS011;11197;53.110;8.468;2024-01-07T05:16:47;4.13;;;1.63;;
22064;SDS011;11197;53.110;8.468;2024-01-07T05:19:13;2.58;;;1.50;;
22064;SDS011;11197;53.110;8.468;2024-01-07T05:21:39;3.28;;;1.63;;
22064;SDS011;11197;53.110;8.468;2024-01-07T05:24:05;4.13;;;1.83;;
22064;SDS011;11197;53.110;8.468;2024-01-07T05:26:31;3.88;;;1.60;;
22064;SDS011;11197;53.110;8.468;2024-01-07T05:29:02;4.45;;;1.80;;
22064;SDS011;11197;53.110;8.468;2024-01-07T05:31:28;3.28;;;1.70;;
22064;SDS011;11197;53.110;8.468;2024-01-07T05:33:53;4.90;;;1.60;;
22064;SDS011;11197;53.110;8.468;2024-01-07T05:36:19;4.93;;;1.80;;
22064;SDS011;11197;53.110;8.468;2024-01-07T05:38:45;2.92;;;1.70;;
22064;SDS011;11197;53.110;8.468;2024-01-07T05:41:10;6.00;;;1.77;;
22064;SDS011;11197;53.110;8.468;2024-01-07T05:43:36;5.15;;;2.00;;
22064;SDS011;11197;53.110;8.468;2024-01-07T05:46:02;3.03;;;1.50;;
22064;SDS011;11197;53.110;8.468;2024-01-07T05:48:28;3.78;;;1.70;;
22064;SDS011;11197;53.110;8.468;2024-01-07T05:50:54;4.18;;;1.67;;
22064;SDS011;11197;53.110;8.468;2024-01-07T05:53:20;3.35;;;1.60;;
22064;SDS011;11197;53.110;8.468;2024-01-07T05:55:45;3.33;;;1.60;;
22064;SDS011;11197;53.110;8.468;2024-01-07T05:58:11;4.78;;;1.48;;
22064;SDS011;11197;53.110;8.468;2024-01-07T06:00:37;4.70;;;1.50;;
22064;SDS011;11197;53.110;8.468;2024-01-07T06:03:03;3.33;;;1.52;;
22064;SDS011;11197;53.110;8.468;2024-01-07T06:05:29;4.18;;;1.75;;
22064;SDS011;11197;53.110;8.468;2024-01-07T06:07:55;3.90;;;1.92;;
22064;SDS011;11197;53.110;8.468;2024-01-07T06:10:20;4.80;;;1.40;;
22064;SDS011;11197;53.110;8.468;2024-01-07T06:12:46;3.10;;;1.67;;
22064;SDS011;11197;53.110;8.468;2024-01-07T06:15:12;3.80;;;1.42;;
22064;SDS011;11197;53.110;8.468;2024-01-07T06:17:38;5.57;;;1.70;;
22064;SDS011;11197;53.110;8.468;2024-01-07T06:20:03;5.07;;;1.70;;
22064;SDS011;11197;53.110;8.468;2024-01-07T06:22:30;2.95;;;1.70;;
22064;SDS011;11197;53.110;8.468;2024-01-07T06:24:56;3.15;;;1.33;;
22064;SDS011;11197;53.110;8.468;2024-01-07T06:27:22;3.58;;;1.75;;
22064;SDS011;11197;53.110;8.468;2024-01-07T06:29:47;3.10;;;1.60;;
22064;SDS011;11197;53.110;8.468;2024-01-07T06:32:13;3.75;;;1.50;;
22064;SDS011;11197;53.110;8.468;2024-01-07T06:34:39;3.95;;;1.77;;
22064;SDS011;11197;53.110;8.468;2024-01-07T06:37:05;3.65;;;1.40;;
22064;SDS011;11197;53.110;8.468;2024-01-07T06:39:32;2.63;;;1.33;;
22064;SDS011;11197;53.110;8.468;2024-01-07T06:41:59;2.95;;;1.60;;
22064;SDS011;11197;53.110;8.468;2024-01-07T06:44:25;3.00;;;1.40;;
22064;SDS011;11197;53.110;8.468;2024-01-07T06:46:50;2.97;;;1.48;;
22064;SDS011;11197;53.110;8.468;2024-01-07T06:49:16;4.75;;;1.42;;
22064;SDS011;11197;53.110;8.468;2024-01-07T06:51:43;4.43;;;1.50;;
22064;SDS011;11197;53.110;8.468;2024-01-07T06:54:08;2.70;;;1.17;;
22064;SDS011;11197;53.110;8.468;2024-01-07T06:56:34;3.65;;;1.48;;
22064;SDS011;11197;53.110;8.468;2024-01-07T06:58:59;2.75;;;1.65;;
22064;SDS011;11197;53.110;8.468;2024-01-07T07:01:25;2.60;;;1.38;;
22064;SDS011;11197;53.110;8.468;2024-01-07T07:03:51;3.80;;;1.60;;
22064;SDS011;11197;53.110;8.468;2024-01-07T07:06:17;5.47;;;2.03;;
22064;SDS011;11197;53.110;8.468;2024-01-07T07:08:42;4.68;;;2.00;;
22064;SDS011;11197;53.110;8.468;2024-01-07T07:11:08;3.67;;;2.17;;
22064;SDS011;11197;53.110;8.468;2024-01-07T07:13:34;4.85;;;1.85;;
22064;SDS011;11197;53.110;8.468;2024-01-07T07:16:00;3.28;;;1.60;;
22064;SDS011;11197;53.110;8.468;2024-01-07T07:18:26;3.75;;;1.60;;
22064;SDS011;11197;53.110;8.468;2024-01-07T07:20:51;3.72;;;1.60;;
22064;SDS011;11197;53.110;8.468;2024-01-07T07:23:17;3.05;;;1.60;;
22064;SDS011;11197;53.110;8.468;2024-01-07T07:25:43;4.07;;;1.63;;
22064;SDS011;11197;53.110;8.468;2024-01-07T07:28:09;4.35;;;1.83;;
22064;SDS011;11197;53.110;8.468;2024-01-07T07:30:34;3.60;;;1.95;;
22064;SDS011;11197;53.110;8.468;2024-01-07T07:33:00;3.80;;;2.20;;
22064;SDS011;11197;53.110;8.468;2024-01-07T07:35:27;4.20;;;1.90;;
22064;SDS011;11197;53.110;8.468;2024-01-07T07:37:53;3.35;;;1.95;;
22064;SDS011;11197;53.110;8.468;2024-01-07T07:40:20;3.30;;;1.85;;
22064;SDS011;11197;53.110;8.468;2024-01-07T07:42:46;5.30;;;1.80;;
22064;SDS011;11197;53.110;8.468;2024-01-07T07:45:11;4.38;;;2.30;;
22064;SDS011;11197;53.110;8.468;2024-01-07T07:47:37;7.03;;;2.22;;
22064;SDS011;11197;53.110;8.468;2024-01-07T07:50:06;5.82;;;2.05;;
22064;SDS011;11197;53.110;8.468;2024-01-07T07:52:32;4.20;;;2.00;;
22064;SDS011;11197;53.110;8.468;2024-01-07T07:54:58;4.25;;;1.80;;
22064;SDS011;11197;53.110;8.468;2024-01-07T07:57:24;4.90;;;1.70;;
22064;SDS011;11197;53.110;8.468;2024-01-07T07:59:50;3.03;;;1.40;;
22064;SDS011;11197;53.110;8.468;2024-01-07T08:02:16;2.88;;;1.40;;
22064;SDS011;11197;53.110;8.468;2024-01-07T08:04:43;4.25;;;1.80;;
22064;SDS011;11197;53.110;8.468;2024-01-07T08:07:09;4.30;;;1.65;;
22064;SDS011;11197;53.110;8.468;2024-01-07T08:09:34;5.13;;;1.52;;
22064;SDS011;11197;53.110;8.468;2024-01-07T08:12:03;4.93;;;1.92;;
22064;SDS011;11197;53.110;8.468;2024-01-07T08:14:30;3.53;;;2.00;;
22064;SDS011;11197;53.110;8.468;2024-01-07T08:16:57;5.25;;;2.00;;
22064;SDS011;11197;53.110;8.468;2024-01-07T08:19:22;4.40;;;2.38;;
22064;SDS011;11197;53.110;8.468;2024-01-07T08:21:48;5.72;;;2.20;;
22064;SDS011;11197;53.110;8.468;2024-01-07T08:24:14;5.05;;;2.50;;
22064;SDS011;11197;53.110;8.468;2024-01-07T08:26:39;4.40;;;2.30;;
22064;SDS011;11197;53.110;8.468;2024-01-07T08:29:05;4.53;;;2.17;;
22064;SDS011;11197;53.110;8.468;2024-01-07T08:31:31;4.85;;;2.45;;
22064;SDS011;11197;53.110;8.468;2024-01-07T08:33:57;4.93;;;2.30;;
22064;SDS011;11197;53.110;8.468;2024-01-07T08:36:23;5.43;;;2.63;;
22064;SDS011;11197;53.110;8.468;2024-01-07T08:38:49;4.95;;;2.40;;
22064;SDS011;11197;53.110;8.468;2024-01-07T08:41:17;5.15;;;2.28;;
22064;SDS011;11197;53.110;8.468;2024-01-07T08:43:43;4.22;;;2.20;;
22064;SDS011;11197;53.110;8.468;2024-01-07T08:46:10;5.05;;;2.08;;
22064;SDS011;11197;53.110;8.468;2024-01-07T08:48:36;3.92;;;2.30;;
22064;SDS011;11197;53.110;8.468;2024-01-07T08:51:02;8.10;;;2.58;;
22064;SDS011;11197;53.110;8.468;2024-01-07T08:53:28;6.07;;;2.78;;
22064;SDS011;11197;53.110;8.468;2024-01-07T08:55:54;4.80;;;2.58;;
22064;SDS011;11197;53.110;8.468;2024-01-07T08:58:19;3.80;;;2.10;;
22064;SDS011;11197;53.110;8.468;2024-01-07T09:00:45;4.95;;;2.40;;
22064;SDS011;11197;53.110;8.468;2024-01-07T09:03:11;4.18;;;2.10;;
22064;SDS011;11197;53.110;8.468;2024-01-07T09:05:37;5.53;;;2.53;;
22064;SDS011;11197;53.110;8.468;2024-01-07T09:08:02;6.10;;;3.00;;
22064;SDS011;11197;53.110;8.468;2024-01-07T09:10:28;3.90;;;2.20;;
22064;SDS011;11197;53.110;8.468;2024-01-07T09:12:54;6.13;;;2.47;;
22064;SDS011;11197;53.110;8.468;2024-01-07T09:15:20;6.95;;;2.50;;
22064;SDS011;11197;53.110;8.468;2024-01-07T09:17:46;5.78;;;2.55;;
22064;SDS011;11197;53.110;8.468;2024-01-07T09:20:12;5.15;;;2.28;;
22064;SDS011;11197;53.110;8.468;2024-01-07T09:22:38;4.15;;;2.15;;
22064;SDS011;11197;53.110;8.468;2024-01-07T09:25:05;5.20;;;2.20;;
22064;SDS011;11197;53.110;8.468;2024-01-07T09:27:32;4.53;;;2.45;;
22064;SDS011;11197;53.110;8.468;2024-01-07T09:29:58;5.85;;;2.75;;
22064;SDS011;11197;53.110;8.468;2024-01-07T09:32:24;6.70;;;2.75;;
22064;SDS011;11197;53.110;8.468;2024-01-07T09:34:50;4.68;;;2.50;;
22064;SDS011;11197;53.110;8.468;2024-01-07T09:37:16;5.78;;;2.60;;
22064;SDS011;11197;53.110;8.468;2024-01-07T09:39:43;5.70;;;2.78;;
22064;SDS011;11197;53.110;8.468;2024-01-07T09:42:13;5.40;;;2.90;;
22064;SDS011;11197;53.110;8.468;2024-01-07T09:44:40;5.07;;;2.90;;
22064;SDS011;11197;53.110;8.468;2024-01-07T09:47:07;4.68;;;2.80;;
22064;SDS011;11197;53.110;8.468;2024-01-07T09:52:08;5.68;;;2.90;;
22064;SDS011;11197;53.110;8.468;2024-01-07T09:54:35;6.07;;;3.17;;
22064;SDS011;11197;53.110;8.468;2024-01-07T09:57:03;5.82;;;3.50;;
22064;SDS011;11197;53.110;8.468;2024-01-07T09:59:32;6.97;;;3.20;;
22064;SDS011;11197;53.110;8.468;2024-01-07T10:01:58;6.78;;;3.10;;
22064;SDS011;11197;53.110;8.468;2024-01-07T10:04:24;6.20;;;3.13;;
22064;SDS011;11197;53.110;8.468;2024-01-07T10:06:50;8.43;;;3.97;;
22064;SDS011;11197;53.110;8.468;2024-01-07T10:09:17;8.48;;;3.92;;
22064;SDS011;11197;53.110;8.468;2024-01-07T10:11:46;6.90;;;3.75;;
22064;SDS011;11197;53.110;8.468;2024-01-07T10:14:12;7.30;;;3.97;;
22064;SDS011;11197;53.110;8.468;2024-01-07T10:16:38;10.23;;;4.50;;
22064;SDS011;11197;53.110;8.468;2024-01-07T10:19:04;8.10;;;3.90;;
22064;SDS011;11197;53.110;8.468;2024-01-07T10:21:32;9.30;;;4.38;;
22064;SDS011;11197;53.110;8.468;2024-01-07T10:24:11;9.02;;;4.40;;
22064;SDS011;11197;53.110;8.468;2024-01-07T10:26:38;8.70;;;4.10;;
22064;SDS011;11197;53.110;8.468;2024-01-07T10:29:04;7.47;;;4.38;;
22064;SDS011;11197;53.110;8.468;2024-01-07T10:31:34;8.38;;;4.40;;
22064;SDS011;11197;53.110;8.468;2024-01-07T10:34:00;7.18;;;3.92;;
22064;SDS011;11197;53.110;8.468;2024-01-07T10:36:26;9.60;;;4.53;;
22064;SDS011;11197;53.110;8.468;2024-01-07T10:38:52;7.35;;;4.25;;
22064;SDS011;11197;53.110;8.468;2024-01-07T10:41:19;8.50;;;4.30;;
22064;SDS011;11197;53.110;8.468;2024-01-07T10:43:48;7.80;;;4.40;;
22064;SDS011;11197;53.110;8.468;2024-01-07T10:46:15;8.18;;;4.28;;
22064;SDS011;11197;53.110;8.468;2024-01-07T10:48:53;9.23;;;4.57;;
22064;SDS011;11197;53.110;8.468;2024-01-07T10:51:23;8.75;;;4.10;;
22064;SDS011;11197;53.110;8.468;2024-01-07T10:53:52;9.38;;;4.82;;
22064;SDS011;11197;53.110;8.468;2024-01-07T10:56:22;10.23;;;5.10;;
22064;SDS011;11197;53.110;8.468;2024-01-07T10:58:48;8.48;;;4.35;;
22064;SDS011;11197;53.110;8.468;2024-01-07T11:03:56;7.15;;;3.63;;
22064;SDS011;11197;53.110;8.468;2024-01-07T11:06:42;10.05;;;4.28;;
22064;SDS011;11197;53.110;8.468;2024-01-07T11:09:21;8.23;;;4.18;;
22064;SDS011;11197;53.110;8.468;2024-01-07T11:11:54;8.85;;;4.72;;
22064;SDS011;11197;53.110;8.468;2024-01-07T11:17:10;7.32;;;3.97;;
22064;SDS011;11197;53.110;8.468;2024-01-07T11:19:38;6.60;;;3.95;;
22064;SDS011;11197;53.110;8.468;2024-01-07T11:24:47;9.10;;;4.50;;
22064;SDS011;11197;53.110;8.468;2024-01-07T11:27:13;7.65;;;4.57;;
22064;SDS011;11197;53.110;8.468;2024-01-07T11:29:40;10.50;;;5.07;;
22064;SDS011;11197;53.110;8.468;2024-01-07T11:32:06;6.53;;;4.15;;
22064;SDS011;11197;53.110;8.468;2024-01-07T11:34:41;7.03;;;3.60;;
22064;SDS011;11197;53.110;8.468;2024-01-07T11:37:11;9.05;;;4.05;;
22064;SDS011;11197;53.110;8.468;2024-01-07T11:39:48;7.55;;;3.72;;
22064;SDS011;11197;53.110;8.468;2024-01-07T11:42:16;7.38;;;3.67;;
22064;SDS011;11197;53.110;8.468;2024-01-07T11:44:49;7.22;;;3.83;;
22064;SDS011;11197;53.110;8.468;2024-01-07T11:47:19;9.30;;;4.00;;
22064;SDS011;11197;53.110;8.468;2024-01-07T11:49:46;7.43;;;4.00;;
22064;SDS011;11197;53.110;8.468;2024-01-07T11:52:12;9.32;;;3.65;;
22064;SDS011;11197;53.110;8.468;2024-01-07T11:54:38;8.65;;;3.90;;
22064;SDS011;11197;53.110;8.468;2024-01-07T11:57:05;6.30;;;3.90;;
22064;SDS011;11197;53.110;8.468;2024-01-07T11:59:31;7.95;;;3.42;;
22064;SDS011;11197;53.110;8.468;2024-01-07T12:01:59;7.75;;;3.63;;
22064;SDS011;11197;53.110;8.468;2024-01-07T12:04:25;6.00;;;3.63;;
22064;SDS011;11197;53.110;8.468;2024-01-07T12:06:51;6.80;;;3.50;;
22064;SDS011;11197;53.110;8.468;2024-01-07T12:09:17;9.75;;;3.70;;
22064;SDS011;11197;53.110;8.468;2024-01-07T12:11:43;11.05;;;4.00;;
22064;SDS011;11197;53.110;8.468;2024-01-07T12:14:09;7.63;;;3.80;;
22064;SDS011;11197;53.110;8.468;2024-01-07T12:16:36;8.05;;;3.92;;
22064;SDS011;11197;53.110;8.468;2024-01-07T12:19:02;7.95;;;4.00;;
22064;SDS011;11197;53.110;8.468;2024-01-07T12:21:28;8.82;;;4.00;;
22064;SDS011;11197;53.110;8.468;2024-01-07T12:23:55;6.57;;;3.38;;
22064;SDS011;11197;53.110;8.468;2024-01-07T12:26:25;7.80;;;3.47;;
22064;SDS011;11197;53.110;8.468;2024-01-07T12:28:52;8.40;;;3.63;;
22064;SDS011;11197;53.110;8.468;2024-01-07T12:31:27;8.73;;;4.22;;
22064;SDS011;11197;53.110;8.468;2024-01-07T12:33:54;7.22;;;3.85;;
22064;SDS011;11197;53.110;8.468;2024-01-07T12:36:21;8.57;;;3.95;;
22064;SDS011;11197;53.110;8.468;2024-01-07T12:38:47;8.40;;;4.40;;
22064;SDS011;11197;53.110;8.468;2024-01-07T12:41:14;6.85;;;3.10;;
22064;SDS011;11197;53.110;8.468;2024-01-07T12:43:40;6.93;;;3.85;;
22064;SDS011;11197;53.110;8.468;2024-01-07T12:46:06;6.57;;;3.45;;
22064;SDS011;11197;53.110;8.468;2024-01-07T12:48:32;7.15;;;3.65;;
22064;SDS011;11197;53.110;8.468;2024-01-07T12:50:58;6.75;;;3.13;;
22064;SDS011;11197;53.110;8.468;2024-01-07T12:53:25;7.00;;;3.10;;
22064;SDS011;11197;53.110;8.468;2024-01-07T12:55:50;6.20;;;3.20;;
22064;SDS011;11197;53.110;8.468;2024-01-07T12:58:17;5.80;;;3.28;;
22064;SDS011;11197;53.110;8.468;2024-01-07T13:00:43;7.75;;;3.63;;
22064;SDS011;11197;53.110;8.468;2024-01-07T13:03:09;7.63;;;3.47;;
22064;SDS011;11197;53.110;8.468;2024-01-07T13:05:44;5.25;;;3.15;;
22064;SDS011;11197;53.110;8.468;2024-01-07T13:08:11;7.13;;;3.25;;
22064;SDS011;11197;53.110;8.468;2024-01-07T13:10:38;6.05;;;3.53;;
22064;SDS011;11197;53.110;8.468;2024-01-07T13:13:04;6.32;;;3.40;;
22064;SDS011;11197;53.110;8.468;2024-01-07T13:15:30;5.68;;;3.28;;
22064;SDS011;11197;53.110;8.468;2024-01-07T13:17:56;8.02;;;3.50;;
22064;SDS011;11197;53.110;8.468;2024-01-07T13:20:22;6.75;;;3.72;;
22064;SDS011;11197;53.110;8.468;2024-01-07T13:22:49;8.05;;;4.13;;
22064;SDS011;11197;53.110;8.468;2024-01-07T13:25:15;6.30;;;3.55;;
22064;SDS011;11197;53.110;8.468;2024-01-07T13:27:40;7.38;;;3.40;;
22064;SDS011;11197;53.110;8.468;2024-01-07T13:30:09;6.53;;;3.38;;
22064;SDS011;11197;53.110;8.468;2024-01-07T13:32:36;5.72;;;3.17;;
22064;SDS011;11197;53.110;8.468;2024-01-07T13:35:02;6.95;;;3.80;;
22064;SDS011;11197;53.110;8.468;2024-01-07T13:37:29;8.90;;;4.70;;
22064;SDS011;11197;53.110;8.468;2024-01-07T13:39:57;8.65;;;4.70;;
22064;SDS011;11197;53.110;8.468;2024-01-07T13:42:22;7.35;;;4.00;;
22064;SDS011;11197;53.110;8.468;2024-01-07T13:44:48;7.78;;;4.32;;
22064;SDS011;11197;53.110;8.468;2024-01-07T13:47:14;8.18;;;3.97;;
22064;SDS011;11197;53.110;8.468;2024-01-07T13:49:40;9.07;;;4.63;;
22064;SDS011;11197;53.110;8.468;2024-01-07T13:52:06;9.70;;;4.88;;
22064;SDS011;11197;53.110;8.468;2024-01-07T13:54:32;9.93;;;5.30;;
22064;SDS011;11197;53.110;8.468;2024-01-07T13:56:57;10.15;;;5.70;;
22064;SDS011;11197;53.110;8.468;2024-01-07T13:59:25;11.07;;;5.25;;
22064;SDS011;11197;53.110;8.468;2024-01-07T14:01:51;7.65;;;4.63;;
22064;SDS011;11197;53.110;8.468;2024-01-07T14:04:17;8.00;;;4.85;;
22064;SDS011;11197;53.110;8.468;2024-01-07T14:06:43;8.80;;;5.25;;
22064;SDS011;11197;53.110;8.468;2024-01-07T14:09:09;7.78;;;4.95;;
22064;SDS011;11197;53.110;8.468;2024-01-07T14:11:35;9.60;;;4.72;;
22064;SDS011;11197;53.110;8.468;2024-01-07T14:14:01;10.27;;;4.55;;
22064;SDS011;11197;53.110;8.468;2024-01-07T14:16:27;6.82;;;4.40;;
22064;SDS011;11197;53.110;8.468;2024-01-07T14:18:53;7.63;;;4.47;;
22064;SDS011;11197;53.110;8.468;2024-01-07T14:21:19;7.78;;;4.40;;
22064;SDS011;11197;53.110;8.468;2024-01-07T14:23:46;15.32;;;7.53;;
22064;SDS011;11197;53.110;8.468;2024-01-07T14:26:13;8.13;;;4.60;;
22064;SDS011;11197;53.110;8.468;2024-01-07T14:28:40;7.70;;;4.10;;
22064;SDS011;11197;53.110;8.468;2024-01-07T14:31:05;8.27;;;3.80;;
22064;SDS011;11197;53.110;8.468;2024-01-07T14:33:32;7.15;;;4.25;;
22064;SDS011;11197;53.110;8.468;2024-01-07T14:35:58;7.75;;;4.20;;
22064;SDS011;11197;53.110;8.468;2024-01-07T14:38:23;9.88;;;4.85;;
22064;SDS011;11197;53.110;8.468;2024-01-07T14:40:50;7.00;;;4.25;;
22064;SDS011;11197;53.110;8.468;2024-01-07T14:43:17;6.97;;;3.83;;
22064;SDS011;11197;53.110;8.468;2024-01-07T14:45:43;7.70;;;4.10;;
22064;SDS011;11197;53.110;8.468;2024-01-07T14:48:08;8.52;;;4.10;;
22064;SDS011;11197;53.110;8.468;2024-01-07T14:50:34;6.93;;;4.53;;
22064;SDS011;11197;53.110;8.468;2024-01-07T14:53:00;7.60;;;3.75;;